Terminal Aerodrome Forecast
Issued by NWS Norman, OK

Home | Current Version | Previous Version | Text Only | Print | Product List | Glossary On
Versions: 1 2 3 4 5 6 7 8 9 10 11 12 13 14 15 16 17 18 19 20 21 22 23 24 25 26 27 28 29 30 31 32 33 34
000
FTUS44 KOUN 291737
TAFSPS
TAF
KSPS 291737Z 2918/3018 25008KT P6SM SCT035 BKN100
      TEMPO 3006/3010 2SM TSRA BKN030CB
     FM301000 01013KT 5SM -TSRA BR SCT015 OVC030CB
     FM301200 01015G20KT 6SM -RA BR BKN025=

USA.gov is the U.S. government's official web portal to all federal, state and local government web resources and services.